createdAt,value
2019-03-05T00:02:02.592Z,16.40
2019-03-05T00:04:33.117Z,15.00
2019-03-05T00:07:04.035Z,15.37
2019-03-05T00:09:34.928Z,16.33
2019-03-05T00:12:06.975Z,15.80
2019-03-05T00:14:38.227Z,15.53
2019-03-05T00:17:08.712Z,15.20
2019-03-05T00:19:39.387Z,15.20
2019-03-05T00:22:10.052Z,15.50
2019-03-05T00:25:15.971Z,15.83
2019-03-05T00:28:08.811Z,14.80
2019-03-05T00:30:55.186Z,15.07
2019-03-05T00:33:48.741Z,14.93
2019-03-05T00:36:31.076Z,14.80
2019-03-05T00:39:22.369Z,15.10
2019-03-05T00:42:26.036Z,15.20
2019-03-05T00:45:20.779Z,15.53
2019-03-05T00:48:26.280Z,15.10
2019-03-05T00:51:47.082Z,14.93
2019-03-05T00:54:59.533Z,15.40
2019-03-05T00:57:58.816Z,15.67
2019-03-05T01:01:05.299Z,15.30
2019-03-05T01:04:02.249Z,15.80
2019-03-05T01:06:32.528Z,16.23
2019-03-05T01:09:02.963Z,14.97
2019-03-05T01:11:34.035Z,15.20
2019-03-05T01:14:05.399Z,14.70
2019-03-05T01:16:36.943Z,14.93
2019-03-05T01:19:07.675Z,15.37
2019-03-05T01:21:39.326Z,15.13
2019-03-05T01:24:10.456Z,15.80
2019-03-05T01:26:41.508Z,15.37
2019-03-05T01:29:13.096Z,15.80
2019-03-05T01:32:17.888Z,15.87
2019-03-05T01:34:55.752Z,15.77
2019-03-05T01:37:26.795Z,15.90
2019-03-05T01:40:18.447Z,14.93
2019-03-05T01:42:49.966Z,16.80
2019-03-05T01:45:21.836Z,14.83
2019-03-05T01:47:52.456Z,16.10
2019-03-05T01:50:22.971Z,15.70
2019-03-05T01:52:53.379Z,15.83
2019-03-05T01:55:23.750Z,15.40
2019-03-05T01:57:54.220Z,16.57
2019-03-05T02:00:24.771Z,18.10
2019-03-05T02:02:55.964Z,16.20
2019-03-05T02:05:26.669Z,16.33
2019-03-05T02:07:57.816Z,16.30
2019-03-05T02:10:28.418Z,17.40
2019-03-05T02:12:59.568Z,16.63
2019-03-05T02:15:30.621Z,16.93
2019-03-05T02:18:01.355Z,17.47
2019-03-05T02:20:31.820Z,18.53
2019-03-05T02:23:06.044Z,17.73
2019-03-05T02:26:06.783Z,17.20
2019-03-05T02:29:05.262Z,15.40
2019-03-05T02:32:24.112Z,16.27
2019-03-05T02:35:41.595Z,17.67
2019-03-05T02:38:39.950Z,15.80
2019-03-05T02:41:57.978Z,17.70
2019-03-05T02:44:49.279Z,16.03
2019-03-05T02:48:01.091Z,16.33
2019-03-05T02:51:00.960Z,16.00
2019-03-05T02:54:21.652Z,16.50
2019-03-05T02:57:08.602Z,15.87
2019-03-05T02:59:39.658Z,15.30
2019-03-05T03:02:28.918Z,16.03
2019-03-05T03:05:17.781Z,15.33
2019-03-05T03:07:48.020Z,16.33
2019-03-05T03:10:28.067Z,14.97
2019-03-05T03:12:58.811Z,15.83
2019-03-05T03:15:29.373Z,14.80
2019-03-05T03:17:59.791Z,14.80
2019-03-05T03:20:30.279Z,14.90
2019-03-05T03:23:00.612Z,15.70
2019-03-05T03:25:32.073Z,15.20
2019-03-05T03:28:02.703Z,15.53
2019-03-05T03:30:33.772Z,15.10
2019-03-05T03:33:04.840Z,15.00
2019-03-05T03:35:37.072Z,15.10
2019-03-05T03:38:08.370Z,14.80
2019-03-05T03:40:39.167Z,16.00
2019-03-05T03:43:09.895Z,14.80
2019-03-05T03:45:40.619Z,14.47
2019-03-05T03:48:11.135Z,16.10
2019-03-05T03:50:41.830Z,15.43
2019-03-05T03:53:12.197Z,15.70
2019-03-05T03:55:43.173Z,15.53
2019-03-05T03:58:13.838Z,15.00
2019-03-05T04:00:44.157Z,15.63
2019-03-05T04:03:15.264Z,14.93
2019-03-05T04:05:45.830Z,15.90
2019-03-05T04:08:16.473Z,16.20
2019-03-05T04:10:47.522Z,14.63
2019-03-05T04:13:18.218Z,15.27
2019-03-05T04:15:49.185Z,14.97
2019-03-05T04:18:20.015Z,14.97
2019-03-05T04:20:53.236Z,15.33
2019-03-05T04:23:24.059Z,15.43
2019-03-05T04:25:55.015Z,15.27
2019-03-05T04:28:25.411Z,14.27
2019-03-05T04:30:55.819Z,16.17
2019-03-05T04:33:26.279Z,15.47
2019-03-05T04:35:57.027Z,15.70
2019-03-05T04:38:27.879Z,16.50
2019-03-05T04:40:57.944Z,17.17
2019-03-05T04:43:28.879Z,17.03
2019-03-05T04:46:04.832Z,17.40
2019-03-05T04:48:35.261Z,18.40
2019-03-05T04:51:23.023Z,17.57
2019-03-05T04:53:53.610Z,18.97
2019-03-05T04:56:24.131Z,18.43
2019-03-05T04:58:55.497Z,17.90
2019-03-05T05:01:26.294Z,18.20
2019-03-05T05:03:56.945Z,17.80
2019-03-05T05:06:28.075Z,18.50
2019-03-05T05:08:59.020Z,19.00
2019-03-05T05:11:29.633Z,17.50
2019-03-05T05:14:00.240Z,17.70
2019-03-05T05:16:31.177Z,17.83
2019-03-05T05:19:02.208Z,18.83
2019-03-05T05:21:33.472Z,16.60
2019-03-05T05:24:04.372Z,17.07
2019-03-05T05:26:39.516Z,17.13
2019-03-05T05:29:10.029Z,19.03
2019-03-05T05:31:40.709Z,18.03
2019-03-05T05:34:11.208Z,17.67
2019-03-05T05:36:42.117Z,18.73
2019-03-05T05:39:48.899Z,18.60
2019-03-05T05:42:19.584Z,17.70
2019-03-05T05:44:50.260Z,18.20
2019-03-05T05:47:21.091Z,18.03
2019-03-05T05:49:51.603Z,19.10
2019-03-05T05:52:22.871Z,18.93
2019-03-05T05:54:53.420Z,17.87
2019-03-05T05:57:24.309Z,20.03
2019-03-05T05:59:55.072Z,33.47
2019-03-05T06:02:26.385Z,24.23
2019-03-05T06:04:58.724Z,28.43
2019-03-05T06:07:29.360Z,20.07
2019-03-05T06:10:00.098Z,18.27
2019-03-05T06:12:31.153Z,17.20
2019-03-05T06:15:01.897Z,18.23
2019-03-05T06:17:32.779Z,18.20
2019-03-05T06:20:03.620Z,16.57
2019-03-05T06:22:34.437Z,17.07
2019-03-05T06:25:05.745Z,17.57
2019-03-05T06:27:36.726Z,17.07
2019-03-05T06:30:09.261Z,16.43
2019-03-05T06:32:39.881Z,19.07
2019-03-05T06:35:10.457Z,16.77
2019-03-05T06:37:41.036Z,17.93
2019-03-05T06:40:14.277Z,17.10
2019-03-05T06:42:44.985Z,17.57
2019-03-05T06:45:17.312Z,18.70
2019-03-05T06:47:48.726Z,18.23
2019-03-05T06:50:19.585Z,17.20
2019-03-05T06:52:49.961Z,16.43
2019-03-05T06:55:20.398Z,17.93
2019-03-05T06:57:51.082Z,17.70
2019-03-05T07:00:32.568Z,16.60
2019-03-05T07:03:03.830Z,17.17
2019-03-05T07:06:11.058Z,16.80
2019-03-05T07:08:57.291Z,17.90
2019-03-05T07:11:44.299Z,17.63
2019-03-05T07:14:19.740Z,17.00
2019-03-05T07:17:19.888Z,16.53
2019-03-05T07:20:28.258Z,15.67
2019-03-05T07:23:18.264Z,14.90
2019-03-05T07:25:49.582Z,15.77
2019-03-05T07:28:20.034Z,13.50
2019-03-05T07:30:50.985Z,13.17
2019-03-05T07:33:21.775Z,13.13
2019-03-05T07:35:52.849Z,13.20
2019-03-05T07:38:24.175Z,13.27
2019-03-05T07:40:56.145Z,13.10
2019-03-05T07:43:36.203Z,13.30
2019-03-05T07:45:59.295Z,13.00
2019-03-05T07:48:30.475Z,13.40
2019-03-05T07:51:01.099Z,12.90
2019-03-05T07:53:31.977Z,13.27
2019-03-05T07:56:02.794Z,12.63
2019-03-05T07:58:33.382Z,13.20
2019-03-05T08:01:04.711Z,11.43
2019-03-05T08:03:35.446Z,12.10
2019-03-05T08:06:05.841Z,11.83
2019-03-05T08:09:11.673Z,12.50
2019-03-05T08:11:42.267Z,11.70
2019-03-05T08:14:53.777Z,12.00
2019-03-05T08:17:24.902Z,12.53
2019-03-05T08:19:58.137Z,12.40
2019-03-05T08:22:29.547Z,12.90
2019-03-05T08:24:59.909Z,13.10
2019-03-05T08:27:30.679Z,13.07
2019-03-05T08:30:05.941Z,13.80
2019-03-05T08:32:34.298Z,13.20
2019-03-05T08:35:06.143Z,12.87
2019-03-05T08:37:36.818Z,11.93
2019-03-05T08:40:10.033Z,12.90
2019-03-05T08:42:41.112Z,12.40
2019-03-05T08:45:13.511Z,13.70
2019-03-05T08:47:44.315Z,13.10
2019-03-05T08:50:15.187Z,14.67
2019-03-05T08:52:45.796Z,13.83
2019-03-05T08:55:16.621Z,13.27
2019-03-05T08:57:47.524Z,13.23
2019-03-05T09:00:19.033Z,13.30
2019-03-05T09:02:51.210Z,13.93
2019-03-05T09:05:22.294Z,12.70
2019-03-05T09:07:52.992Z,14.03
2019-03-05T09:10:24.137Z,12.43
2019-03-05T09:12:54.629Z,12.93
2019-03-05T09:15:25.646Z,13.40
2019-03-05T09:17:56.875Z,13.90
2019-03-05T09:20:27.558Z,13.00
2019-03-05T09:22:58.026Z,12.80
2019-03-05T09:25:47.435Z,12.90
2019-03-05T09:28:18.328Z,12.50
2019-03-05T09:30:49.427Z,12.87
2019-03-05T09:33:19.828Z,13.43
2019-03-05T09:35:50.753Z,14.30
2019-03-05T09:38:21.658Z,13.83
2019-03-05T09:40:52.412Z,13.90
2019-03-05T09:43:23.025Z,13.10
2019-03-05T09:45:54.118Z,13.13
2019-03-05T09:48:24.632Z,14.70
2019-03-05T09:50:56.289Z,13.33
2019-03-05T09:53:27.047Z,12.60
2019-03-05T09:55:57.736Z,14.10
2019-03-05T09:58:28.209Z,11.90
2019-03-05T10:00:59.140Z,13.00
2019-03-05T10:03:29.683Z,14.60
2019-03-05T10:06:00.504Z,13.80
2019-03-05T10:08:32.642Z,12.53
2019-03-05T10:11:03.812Z,14.40
2019-03-05T10:13:35.448Z,12.70
2019-03-05T10:16:07.833Z,12.90
2019-03-05T10:18:39.340Z,12.53
2019-03-05T10:21:11.969Z,13.30
2019-03-05T10:23:43.130Z,12.60
2019-03-05T10:26:14.145Z,12.50
2019-03-05T10:28:45.245Z,11.93
2019-03-05T10:31:18.616Z,11.30
2019-03-05T10:33:48.953Z,13.23
2019-03-05T10:36:20.617Z,11.47
2019-03-05T10:38:57.366Z,12.10
2019-03-05T10:41:24.312Z,12.07
2019-03-05T10:43:54.961Z,12.60
2019-03-05T10:46:26.186Z,12.23
2019-03-05T10:48:57.508Z,11.97
2019-03-05T10:51:28.887Z,11.73
2019-03-05T10:54:02.032Z,11.00
2019-03-05T10:56:32.148Z,11.00
2019-03-05T10:59:05.334Z,12.60
2019-03-05T11:01:35.864Z,12.30
2019-03-05T11:04:06.923Z,11.50
2019-03-05T11:06:37.901Z,13.70
2019-03-05T11:09:09.774Z,13.97
2019-03-05T11:11:40.887Z,13.60
2019-03-05T11:14:12.976Z,13.80
2019-03-05T11:16:43.781Z,13.70
2019-03-05T11:19:15.089Z,14.00
2019-03-05T11:21:45.832Z,15.20
2019-03-05T11:24:16.944Z,14.80
2019-03-05T11:26:47.547Z,13.77
2019-03-05T11:29:17.988Z,14.60
2019-03-05T11:31:48.599Z,13.13
2019-03-05T11:34:19.113Z,14.00
2019-03-05T11:36:49.686Z,14.13
2019-03-05T11:39:20.472Z,13.60
2019-03-05T11:41:51.498Z,13.40
2019-03-05T11:44:22.908Z,13.80
2019-03-05T11:46:53.932Z,13.67
2019-03-05T11:49:24.542Z,12.93
2019-03-05T11:51:55.671Z,13.80
2019-03-05T11:54:26.459Z,14.60
2019-03-05T11:56:57.304Z,14.97
2019-03-05T11:59:27.544Z,14.20
2019-03-05T12:01:58.474Z,13.23
2019-03-05T12:04:29.493Z,13.40
2019-03-05T12:07:00.971Z,14.07
2019-03-05T12:09:31.899Z,13.97
2019-03-05T12:12:02.451Z,13.63
2019-03-05T12:14:33.024Z,13.80
2019-03-05T12:17:03.494Z,13.30
2019-03-05T12:19:33.913Z,13.03
2019-03-05T12:22:04.514Z,13.40
2019-03-05T12:24:37.650Z,12.53
2019-03-05T12:27:08.345Z,12.97
2019-03-05T12:29:39.412Z,13.93
2019-03-05T12:32:15.181Z,13.57
2019-03-05T12:34:45.346Z,14.13
2019-03-05T12:37:15.993Z,14.60
2019-03-05T12:39:46.357Z,14.93
2019-03-05T12:42:17.153Z,13.50
2019-03-05T12:44:50.967Z,14.43
2019-03-05T12:47:21.436Z,14.47
2019-03-05T12:49:51.993Z,14.27
2019-03-05T12:52:26.797Z,13.57
2019-03-05T12:54:57.635Z,13.37
2019-03-05T12:57:28.533Z,13.90
2019-03-05T12:59:59.679Z,13.60
2019-03-05T13:02:30.780Z,14.43
2019-03-05T13:05:01.497Z,14.63
2019-03-05T13:07:32.890Z,15.83
2019-03-05T13:10:03.337Z,14.87
2019-03-05T13:12:35.974Z,14.70
2019-03-05T13:15:06.945Z,14.50
2019-03-05T13:17:38.111Z,14.23
2019-03-05T13:20:11.694Z,14.90
2019-03-05T13:22:42.671Z,14.57
2019-03-05T13:25:15.339Z,14.47
2019-03-05T13:27:46.333Z,14.90
2019-03-05T13:30:22.124Z,13.50
2019-03-05T13:32:54.130Z,13.63
2019-03-05T13:35:30.379Z,14.37
2019-03-05T13:37:58.804Z,15.13
2019-03-05T13:40:30.282Z,15.50
2019-03-05T13:43:01.979Z,15.40
2019-03-05T13:45:35.157Z,14.43
2019-03-05T13:48:58.321Z,15.47
2019-03-05T13:52:13.198Z,14.10
2019-03-05T13:55:40.421Z,15.07
2019-03-05T13:58:32.782Z,15.00
2019-03-05T14:01:03.742Z,15.07
2019-03-05T14:03:43.484Z,14.40
2019-03-05T14:06:54.596Z,15.17
2019-03-05T14:09:23.741Z,14.90
2019-03-05T14:11:54.839Z,14.77
2019-03-05T14:14:28.558Z,15.00
2019-03-05T14:17:07.020Z,15.47
2019-03-05T14:19:37.789Z,14.47
2019-03-05T14:22:08.466Z,14.33
2019-03-05T14:24:39.389Z,15.20
2019-03-05T14:27:10.643Z,14.60
2019-03-05T14:29:42.218Z,14.10
2019-03-05T14:32:12.909Z,14.83
2019-03-05T14:34:47.236Z,14.13
2019-03-05T14:37:17.867Z,14.10
2019-03-05T14:39:49.056Z,13.50
2019-03-05T14:42:20.197Z,12.90
2019-03-05T14:44:52.229Z,13.00
2019-03-05T14:47:25.905Z,12.60
2019-03-05T14:49:56.783Z,12.40
2019-03-05T14:52:36.856Z,11.30
2019-03-05T14:55:12.204Z,10.90
2019-03-05T14:57:45.422Z,12.40
2019-03-05T15:00:20.075Z,13.53
2019-03-05T15:02:55.195Z,11.67
2019-03-05T15:05:25.878Z,11.70
2019-03-05T15:07:57.901Z,11.13
2019-03-05T15:10:31.510Z,10.80
2019-03-05T15:13:15.253Z,12.50
2019-03-05T15:15:37.117Z,12.60
2019-03-05T15:18:07.951Z,14.27
2019-03-05T15:20:40.888Z,12.90
2019-03-05T15:23:11.902Z,13.70
2019-03-05T15:25:42.527Z,12.27
2019-03-05T15:28:13.375Z,12.00
2019-03-05T15:30:45.233Z,12.40
2019-03-05T15:33:16.034Z,11.10
2019-03-05T15:35:46.700Z,10.63
2019-03-05T15:38:18.323Z,12.43
2019-03-05T15:40:50.236Z,16.70
2019-03-05T15:43:21.923Z,13.37
2019-03-05T15:45:53.141Z,12.60
2019-03-05T15:48:24.270Z,12.30
2019-03-05T15:50:57.958Z,11.83
2019-03-05T15:53:28.435Z,11.00
2019-03-05T15:55:59.131Z,11.60
2019-03-05T15:58:30.390Z,10.33
2019-03-05T16:01:01.559Z,9.70
2019-03-05T16:03:32.614Z,8.90
2019-03-05T16:06:04.258Z,8.20
2019-03-05T16:08:35.281Z,8.50
2019-03-05T16:11:06.771Z,7.93
2019-03-05T16:13:38.927Z,8.07
2019-03-05T16:16:10.318Z,7.50
2019-03-05T16:18:41.353Z,7.60
2019-03-05T16:21:12.687Z,8.20
2019-03-05T16:23:45.615Z,8.47
2019-03-05T16:26:16.781Z,7.60
2019-03-05T16:28:48.221Z,8.60
2019-03-05T16:31:38.151Z,8.37
2019-03-05T16:34:47.024Z,9.10
2019-03-05T16:37:42.787Z,9.10
2019-03-05T16:40:30.209Z,9.97
2019-03-05T16:43:14.255Z,10.10
2019-03-05T16:46:12.181Z,10.50
2019-03-05T16:49:03.559Z,11.67
2019-03-05T16:51:40.707Z,11.77
2019-03-05T16:54:26.969Z,11.10
2019-03-05T16:57:05.421Z,11.90
2019-03-05T17:00:17.251Z,9.30
2019-03-05T17:03:21.805Z,9.27
2019-03-05T17:06:06.413Z,8.90
2019-03-05T17:09:02.383Z,9.40
2019-03-05T17:11:50.832Z,8.07
2019-03-05T17:14:28.508Z,8.20
2019-03-05T17:16:58.037Z,8.67
2019-03-05T17:19:28.677Z,8.60
2019-03-05T17:21:59.687Z,9.00
2019-03-05T17:24:30.485Z,9.00
2019-03-05T17:27:01.883Z,9.33
2019-03-05T17:29:33.612Z,9.40
2019-03-05T17:32:04.537Z,9.93
2019-03-05T17:34:35.977Z,9.73
2019-03-05T17:37:07.856Z,10.10
2019-03-05T17:39:39.336Z,9.00
2019-03-05T17:42:10.259Z,10.60
2019-03-05T17:44:41.332Z,10.00
2019-03-05T17:47:12.287Z,9.30
2019-03-05T17:49:43.495Z,9.23
2019-03-05T17:52:14.667Z,9.30
2019-03-05T17:54:45.935Z,7.73
2019-03-05T17:57:17.980Z,7.67
2019-03-05T17:59:48.887Z,8.83
2019-03-05T18:02:21.248Z,6.80
2019-03-05T18:04:52.383Z,7.10
2019-03-05T18:07:23.716Z,8.77
2019-03-05T18:09:55.249Z,9.80
2019-03-05T18:12:26.460Z,8.10
2019-03-05T18:14:57.945Z,7.57
2019-03-05T18:17:28.643Z,7.57
2019-03-05T18:19:59.415Z,8.17
2019-03-05T18:22:30.393Z,9.30
2019-03-05T18:25:01.783Z,10.87
2019-03-05T18:27:33.569Z,9.53
2019-03-05T18:30:04.793Z,9.63
2019-03-05T18:32:36.391Z,10.13
2019-03-05T18:35:08.237Z,9.53
2019-03-05T18:37:38.993Z,9.87
2019-03-05T18:40:13.091Z,8.80
2019-03-05T18:42:44.937Z,8.77
2019-03-05T18:45:20.981Z,8.00
2019-03-05T18:47:52.438Z,7.97
2019-03-05T18:50:24.375Z,7.87
2019-03-05T18:52:55.797Z,8.50
2019-03-05T18:55:28.345Z,8.70
2019-03-05T18:57:59.321Z,8.93
2019-03-05T19:00:30.881Z,8.80
2019-03-05T19:03:02.295Z,7.93
2019-03-05T19:05:35.830Z,9.10
2019-03-05T19:08:06.749Z,8.97
2019-03-05T19:10:39.115Z,8.70
2019-03-05T19:13:10.384Z,9.47
2019-03-05T19:15:42.478Z,8.37
2019-03-05T19:18:13.771Z,8.10
2019-03-05T19:20:45.375Z,8.27
2019-03-05T19:23:17.487Z,8.13
2019-03-05T19:25:48.932Z,7.60
2019-03-05T19:28:20.518Z,9.00
2019-03-05T19:30:52.278Z,8.70
2019-03-05T19:33:24.826Z,8.00
2019-03-05T19:35:56.415Z,7.93
2019-03-05T19:38:27.895Z,8.13
2019-03-05T19:40:59.468Z,7.67
2019-03-05T19:43:30.299Z,8.60
2019-03-05T19:46:02.419Z,9.23
2019-03-05T19:48:33.572Z,8.30
2019-03-05T19:51:05.076Z,9.47
2019-03-05T19:53:36.642Z,9.57
2019-03-05T19:56:08.213Z,8.60
2019-03-05T19:58:39.620Z,7.57
2019-03-05T20:01:16.290Z,10.00
2019-03-05T20:03:48.353Z,9.43
2019-03-05T20:06:20.385Z,9.93
2019-03-05T20:08:51.797Z,9.60
2019-03-05T20:11:23.548Z,9.50
2019-03-05T20:13:54.701Z,9.20
2019-03-05T20:16:26.451Z,9.07
2019-03-05T20:18:58.468Z,8.60
2019-03-05T20:21:29.337Z,9.30
2019-03-05T20:24:00.177Z,10.60
2019-03-05T20:26:31.821Z,9.80
2019-03-05T20:29:03.119Z,8.90
2019-03-05T20:31:34.947Z,10.27
2019-03-05T20:34:10.409Z,9.30
2019-03-05T20:36:41.774Z,10.20
2019-03-05T20:39:13.261Z,10.17
2019-03-05T20:41:46.536Z,9.90
2019-03-05T20:44:17.215Z,9.13
2019-03-05T20:46:48.678Z,9.13
2019-03-05T20:49:21.930Z,9.87
2019-03-05T20:51:54.585Z,10.30
2019-03-05T20:54:52.489Z,8.93
2019-03-05T20:57:23.908Z,10.00
2019-03-05T20:59:58.165Z,9.43
2019-03-05T21:02:30.252Z,9.43
2019-03-05T21:05:01.680Z,9.73
2019-03-05T21:07:36.468Z,10.70
2019-03-05T21:10:07.973Z,9.40
2019-03-05T21:12:38.753Z,10.13
2019-03-05T21:15:10.973Z,9.80
2019-03-05T21:17:42.679Z,10.00
2019-03-05T21:20:13.982Z,10.70
2019-03-05T21:22:45.303Z,10.97
2019-03-05T21:25:17.095Z,9.73
2019-03-05T21:27:48.163Z,11.40
2019-03-05T21:30:20.313Z,11.37
2019-03-05T21:32:52.165Z,12.53
2019-03-05T21:35:23.129Z,13.03
2019-03-05T21:37:54.709Z,11.33
2019-03-05T21:40:26.187Z,10.67
2019-03-05T21:42:57.118Z,12.37
2019-03-05T21:45:34.598Z,12.43
2019-03-05T21:48:06.817Z,11.30
2019-03-05T21:50:37.873Z,10.50
2019-03-05T21:53:09.353Z,12.35
2019-03-05T21:55:40.121Z,12.90
2019-03-05T21:58:11.071Z,12.53
2019-03-05T22:00:42.333Z,13.13
2019-03-05T22:03:13.043Z,11.77
2019-03-05T22:05:44.074Z,12.03
2019-03-05T22:08:14.803Z,12.80
2019-03-05T22:10:45.612Z,12.13
2019-03-05T22:13:16.610Z,11.97
2019-03-05T22:15:47.024Z,13.20
2019-03-05T22:18:19.004Z,11.73
2019-03-05T22:20:49.745Z,13.00
2019-03-05T22:23:20.237Z,12.53
2019-03-05T22:25:50.930Z,12.70
2019-03-05T22:28:21.862Z,12.13
2019-03-05T22:30:52.649Z,13.07
2019-03-05T22:33:23.638Z,13.87
2019-03-05T22:35:56.632Z,13.23
2019-03-05T22:38:27.342Z,11.97
2019-03-05T22:40:57.855Z,13.10
2019-03-05T22:43:28.124Z,11.70
2019-03-05T22:45:59.569Z,12.83
2019-03-05T22:48:30.239Z,12.17
2019-03-05T22:51:00.740Z,13.03
2019-03-05T22:53:31.268Z,13.00
2019-03-05T22:56:01.847Z,12.93
2019-03-05T22:58:32.391Z,12.90
2019-03-05T23:01:13.508Z,13.73
2019-03-05T23:04:04.465Z,12.40
2019-03-05T23:06:35.126Z,12.70
2019-03-05T23:09:09.192Z,11.23
2019-03-05T23:11:40.873Z,12.20
2019-03-05T23:14:11.637Z,13.17
2019-03-05T23:16:42.482Z,12.83
2019-03-05T23:19:13.185Z,13.13
2019-03-05T23:21:44.337Z,13.00
2019-03-05T23:24:15.469Z,12.93
2019-03-05T23:26:46.410Z,13.03
2019-03-05T23:29:18.688Z,11.60
2019-03-05T23:31:49.470Z,13.00
2019-03-05T23:34:20.250Z,12.17
2019-03-05T23:36:50.948Z,13.07
2019-03-05T23:39:21.936Z,12.10
2019-03-05T23:41:53.071Z,12.37
2019-03-05T23:44:23.870Z,14.10
2019-03-05T23:46:55.231Z,14.23
2019-03-05T23:49:27.183Z,14.37
2019-03-05T23:51:57.889Z,13.30
2019-03-05T23:54:28.571Z,13.17
2019-03-05T23:56:59.852Z,13.27
2019-03-05T23:59:31.025Z,14.07
